Rina Amoretti — IBRR — position and weather

sailwx.info

Track history (hours):
 
Tides and Currents Weather Stations Pressure Air Temp Water Temp Dewpoint Dewpoint Depression Visibility Wind Speed Wind Dir Waves Ship Positions

Rina Amoretti

Last reported at 2014-Jul-28 09:25 UTC. Time now 2014-Jul-29 02:44 UTC.
Position N 40°21' E 014°16'.

Length 120 m; draft 6.3 m.

Type: Tanker. MMSI: 247197000.

Date/timePositionNaut miles runAvg speedWind from/ knotsBaromVisibWave heightAir tempDewpointWater temp
2014-Jul-28 09:25N 40°21' E 014°16'1213.6
2014-Jul-28 08:33N 40°32' E 014°09'1313.2
2014-Jul-28 07:33N 40°44' E 014°15'6 2.7
2014-Jul-28 05:18N 40°50' E 014°18'0 0.0
2014-Jul-28 04:21N 40°50' E 014°18'0 0.0
2014-Jul-28 03:30N 40°50' E 014°18'0 0.0
2014-Jul-28 02:30N 40°50' E 014°18'0 0.0
2014-Jul-28 01:24N 40°50' E 014°18'0 0.0
2014-Jul-27 22:15N 40°50' E 014°18'0 0.0
2014-Jul-27 21:06N 40°50' E 014°18'0 0.0
2014-Jul-27 20:30N 40°50' E 014°18'0 0.0
2014-Jul-27 19:30N 40°50' E 014°18'0 0.0
2014-Jul-27 18:33N 40°50' E 014°18'0 0.0
2014-Jul-27 17:33N 40°50' E 014°18'0 0.0
2014-Jul-27 16:30N 40°50' E 014°18'0 0.0
2014-Jul-27 15:21N 40°50' E 014°18'2 2.4
2014-Jul-27 14:33N 40°48' E 014°19'1 0.7
2014-Jul-27 13:29N 40°48' E 014°20'0 0.0
2014-Jul-27 12:22N 40°48' E 014°20'0 0.0
2014-Jul-27 11:31N 40°48' E 014°20'0 0.0
2014-Jul-27 10:28N 40°48' E 014°20'0 0.1
2014-Jul-27 09:28N 40°48' E 014°20'8 8.2
2014-Jul-27 08:33N 40°42' E 014°14'1212.2
2014-Jul-27 07:33N 40°30' E 014°09'1312.7
2014-Jul-27 06:31N 40°19' E 014°18'  
2014-Jul-24 23:28N 38°11' E 013°43'1213.2
2014-Jul-24 22:33N 38°08' E 013°29'3 2.9
2014-Jul-24 21:31N 38°06' E 013°26'0 0.0
2014-Jul-24 20:31N 38°06' E 013°26'0 0.0
2014-Jul-24 19:31N 38°06' E 013°26'0 0.0
2014-Jul-24 18:28N 38°06' E 013°26'0 0.0
2014-Jul-24 17:31N 38°06' E 013°26'0 0.0
2014-Jul-24 16:31N 38°06' E 013°26'0 0.0
2014-Jul-24 15:31N 38°06' E 013°26'0 0.0
2014-Jul-24 14:31N 38°06' E 013°26'0 0.0
2014-Jul-24 13:31N 38°06' E 013°26'0 0.0
2014-Jul-24 12:31N 38°06' E 013°26'0 0.0
2014-Jul-24 11:31N 38°06' E 013°26'0 0.0
2014-Jul-24 10:31N 38°06' E 013°26'0 0.0
2014-Jul-24 09:28N 38°06' E 013°26'0 0.0
2014-Jul-24 08:31N 38°06' E 013°26'0 0.0
2014-Jul-24 07:31N 38°06' E 013°26'0 0.0
2014-Jul-24 06:31N 38°06' E 013°26'0 0.1
2014-Jul-24 05:31N 38°06' E 013°26'2 2.2
2014-Jul-24 04:33N 38°07' E 013°29'0 0.0
2014-Jul-24 03:33N 38°07' E 013°29'0 0.0
2014-Jul-24 02:30N 38°07' E 013°29'0 0.0
2014-Jul-24 01:33N 38°07' E 013°29'0 0.0
2014-Jul-24 00:33N 38°07' E 013°29'0 0.0
2014-Jul-23 23:33N 38°07' E 013°29'0 0.0
2014-Jul-23 22:33N 38°07' E 013°29'0 0.1
2014-Jul-23 21:33N 38°07' E 013°29'0 0.1
2014-Jul-23 20:33N 38°07' E 013°29'0 0.0
2014-Jul-23 19:33N 38°07' E 013°29'0 0.0
2014-Jul-23 18:33N 38°07' E 013°29'0 0.0
2014-Jul-23 17:30N 38°07' E 013°29'0 0.0
2014-Jul-23 16:33N 38°07' E 013°29'0 0.0
2014-Jul-23 15:33N 38°07' E 013°29'0 0.0
2014-Jul-23 14:33N 38°07' E 013°29'0 0.0
2014-Jul-23 13:33N 38°07' E 013°29'0 0.0
2014-Jul-23 12:33N 38°07' E 013°29'0 0.0
2014-Jul-23 11:33N 38°07' E 013°29'0 0.0
2014-Jul-23 10:33N 38°07' E 013°29'0 0.0
2014-Jul-23 09:33N 38°07' E 013°29'0 0.0
2014-Jul-23 08:33N 38°07' E 013°29'0 0.0
2014-Jul-23 07:33N 38°07' E 013°29'0 0.0
2014-Jul-23 06:33N 38°07' E 013°29'0 0.0
2014-Jul-23 05:33N 38°07' E 013°29'0 0.0
2014-Jul-23 04:33N 38°07' E 013°29'0 0.0
2014-Jul-23 03:33N 38°07' E 013°29'0 0.0
2014-Jul-23 02:33N 38°07' E 013°29'0 0.0
2014-Jul-23 01:33N 38°07' E 013°29'0 0.0
2014-Jul-23 00:33N 38°07' E 013°29'0 0.0
2014-Jul-22 23:33N 38°07' E 013°29'0 0.0
2014-Jul-22 22:32N 38°07' E 013°29'0 0.0
2014-Jul-22 21:32N 38°07' E 013°29'0 0.0
2014-Jul-22 20:32N 38°07' E 013°29'0 0.0
2014-Jul-22 19:32N 38°07' E 013°29'0 0.0
2014-Jul-22 18:32N 38°07' E 013°29'0 0.0
2014-Jul-22 17:32N 38°07' E 013°29'0 0.0
2014-Jul-22 16:32N 38°07' E 013°29'0 0.0
2014-Jul-22 15:32N 38°07' E 013°29'0 0.0
2014-Jul-22 14:32N 38°07' E 013°29'2 1.6
2014-Jul-22 13:33N 38°07' E 013°27'0 0.4
2014-Jul-22 12:33N 38°07' E 013°26'0 0.0
2014-Jul-22 11:33N 38°07' E 013°26'0 0.0
2014-Jul-22 10:33N 38°07' E 013°26'0 0.0
2014-Jul-22 09:33N 38°07' E 013°26'0 0.0
2014-Jul-22 08:33N 38°07' E 013°26'0 0.0
2014-Jul-22 07:33N 38°07' E 013°26'0 0.0
2014-Jul-22 06:32N 38°07' E 013°26'0 0.0
2014-Jul-22 05:32N 38°07' E 013°26'0 0.0
2014-Jul-22 04:32N 38°07' E 013°26'0 0.0
2014-Jul-22 03:32N 38°07' E 013°26'0 0.0
2014-Jul-22 02:32N 38°07' E 013°26'0 0.0
2014-Jul-22 01:32N 38°07' E 013°26'0 0.0
2014-Jul-22 00:32N 38°07' E 013°26'0 0.0
2014-Jul-21 23:32N 38°07' E 013°26'0 0.0
2014-Jul-21 22:32N 38°07' E 013°26'0 0.0
2014-Jul-21 21:32N 38°07' E 013°26'0 0.0
2014-Jul-21 20:32N 38°07' E 013°26'0 0.1
2014-Jul-21 20:17N 38°07' E 013°26'0 0.0
2014-Jul-21 19:32N 38°07' E 013°26'0 0.0
2014-Jul-21 18:32N 38°07' E 013°26'0 0.0
2014-Jul-21 17:32N 38°07' E 013°26'0 0.0
2014-Jul-21 16:32N 38°07' E 013°26'0 0.0
2014-Jul-21 15:32N 38°07' E 013°26'0 0.1
2014-Jul-21 14:32N 38°07' E 013°26'0 0.0
2014-Jul-21 13:32N 38°07' E 013°26'0 0.0
2014-Jul-21 12:32N 38°07' E 013°26'0 0.0
2014-Jul-21 11:32N 38°07' E 013°26'0 0.1
2014-Jul-21 10:32N 38°07' E 013°26'0 0.0
2014-Jul-21 09:32N 38°07' E 013°26'0 0.1
2014-Jul-21 08:33N 38°07' E 013°26'1 0.9
2014-Jul-21 07:32N 38°06' E 013°26'0 0.0
2014-Jul-21 06:32N 38°06' E 013°26'0 0.2
2014-Jul-21 05:32N 38°06' E 013°26'1 0.7
2014-Jul-21 04:33N 38°07' E 013°26'0 0.1
2014-Jul-21 03:33N 38°07' E 013°26'0 0.1
2014-Jul-21 02:33N 38°07' E 013°26'0 0.0
2014-Jul-21 01:33N 38°07' E 013°26'0 0.0
2014-Jul-21 00:27N 38°07' E 013°26'0 0.0
2014-Jul-20 23:33N 38°07' E 013°26'0 0.1
2014-Jul-20 22:33N 38°07' E 013°26'7 7.3
2014-Jul-20 21:33N 38°10' E 013°35'1313.5
2014-Jul-20 20:33N 38°11' E 013°52'1313.5
2014-Jul-20 19:33N 38°13' E 014°09'1413.6
2014-Jul-20 18:34N 38°14' E 014°26'1413.9
2014-Jul-20 17:33N 38°15' E 014°44'1414.1
2014-Jul-20 16:33N 38°17' E 015°01'1413.8
2014-Jul-20 15:33N 38°19' E 015°19'1313.2
2014-Jul-20 14:32N 38°20' E 015°36'110 2.2
2014-Jul-18 11:32N 39°59' E 014°33'1413.6
2014-Jul-18 10:29N 40°11' E 014°23'1313.6
2014-Jul-18 09:33N 40°22' E 014°15'  
Track history (hours):
 
Tides and Currents Weather Stations Pressure Air Temp Water Temp Dewpoint Dewpoint Depression Visibility Wind Speed Wind Dir Waves Ship Positions

Rina Amoretti

Last reported at 2014-Jul-28 09:25 UTC. Time now 2014-Jul-29 02:44 UTC.
Position N 40°21' E 014°16'.

Length 120 m; draft 6.3 m.

Type: Tanker. MMSI: 247197000.

Date/timePositionNaut miles runAvg speedWind from/ knotsBaromVisibWave heightAir tempDewpointWater temp
2014-Jul-28 09:25N 40°21' E 014°16'1213.6
2014-Jul-28 08:33N 40°32' E 014°09'1313.2
2014-Jul-28 07:33N 40°44' E 014°15'6 2.7
2014-Jul-28 05:18N 40°50' E 014°18'0 0.0
2014-Jul-28 04:21N 40°50' E 014°18'0 0.0
2014-Jul-28 03:30N 40°50' E 014°18'0 0.0
2014-Jul-28 02:30N 40°50' E 014°18'0 0.0
2014-Jul-28 01:24N 40°50' E 014°18'0 0.0
2014-Jul-27 22:15N 40°50' E 014°18'0 0.0
2014-Jul-27 21:06N 40°50' E 014°18'0 0.0
2014-Jul-27 20:30N 40°50' E 014°18'0 0.0
2014-Jul-27 19:30N 40°50' E 014°18'0 0.0
2014-Jul-27 18:33N 40°50' E 014°18'0 0.0
2014-Jul-27 17:33N 40°50' E 014°18'0 0.0
2014-Jul-27 16:30N 40°50' E 014°18'0 0.0
2014-Jul-27 15:21N 40°50' E 014°18'2 2.4
2014-Jul-27 14:33N 40°48' E 014°19'1 0.7
2014-Jul-27 13:29N 40°48' E 014°20'0 0.0
2014-Jul-27 12:22N 40°48' E 014°20'0 0.0
2014-Jul-27 11:31N 40°48' E 014°20'0 0.0
2014-Jul-27 10:28N 40°48' E 014°20'0 0.1
2014-Jul-27 09:28N 40°48' E 014°20'8 8.2
2014-Jul-27 08:33N 40°42' E 014°14'1212.2
2014-Jul-27 07:33N 40°30' E 014°09'1312.7
2014-Jul-27 06:31N 40°19' E 014°18'  
2014-Jul-24 23:28N 38°11' E 013°43'1213.2
2014-Jul-24 22:33N 38°08' E 013°29'3 2.9
2014-Jul-24 21:31N 38°06' E 013°26'0 0.0
2014-Jul-24 20:31N 38°06' E 013°26'0 0.0
2014-Jul-24 19:31N 38°06' E 013°26'0 0.0
2014-Jul-24 18:28N 38°06' E 013°26'0 0.0
2014-Jul-24 17:31N 38°06' E 013°26'0 0.0
2014-Jul-24 16:31N 38°06' E 013°26'0 0.0
2014-Jul-24 15:31N 38°06' E 013°26'0 0.0
2014-Jul-24 14:31N 38°06' E 013°26'0 0.0
2014-Jul-24 13:31N 38°06' E 013°26'0 0.0
2014-Jul-24 12:31N 38°06' E 013°26'0 0.0
2014-Jul-24 11:31N 38°06' E 013°26'0 0.0
2014-Jul-24 10:31N 38°06' E 013°26'0 0.0
2014-Jul-24 09:28N 38°06' E 013°26'0 0.0
2014-Jul-24 08:31N 38°06' E 013°26'0 0.0
2014-Jul-24 07:31N 38°06' E 013°26'0 0.0
2014-Jul-24 06:31N 38°06' E 013°26'0 0.1
2014-Jul-24 05:31N 38°06' E 013°26'2 2.2
2014-Jul-24 04:33N 38°07' E 013°29'0 0.0
2014-Jul-24 03:33N 38°07' E 013°29'0 0.0
2014-Jul-24 02:30N 38°07' E 013°29'0 0.0
2014-Jul-24 01:33N 38°07' E 013°29'0 0.0
2014-Jul-24 00:33N 38°07' E 013°29'0 0.0
2014-Jul-23 23:33N 38°07' E 013°29'0 0.0
2014-Jul-23 22:33N 38°07' E 013°29'0 0.1
2014-Jul-23 21:33N 38°07' E 013°29'0 0.1
2014-Jul-23 20:33N 38°07' E 013°29'0 0.0
2014-Jul-23 19:33N 38°07' E 013°29'0 0.0
2014-Jul-23 18:33N 38°07' E 013°29'0 0.0
2014-Jul-23 17:30N 38°07' E 013°29'0 0.0
2014-Jul-23 16:33N 38°07' E 013°29'0 0.0
2014-Jul-23 15:33N 38°07' E 013°29'0 0.0
2014-Jul-23 14:33N 38°07' E 013°29'0 0.0
2014-Jul-23 13:33N 38°07' E 013°29'0 0.0
2014-Jul-23 12:33N 38°07' E 013°29'0 0.0
2014-Jul-23 11:33N 38°07' E 013°29'0 0.0
2014-Jul-23 10:33N 38°07' E 013°29'0 0.0
2014-Jul-23 09:33N 38°07' E 013°29'0 0.0
2014-Jul-23 08:33N 38°07' E 013°29'0 0.0
2014-Jul-23 07:33N 38°07' E 013°29'0 0.0
2014-Jul-23 06:33N 38°07' E 013°29'0 0.0
2014-Jul-23 05:33N 38°07' E 013°29'0 0.0
2014-Jul-23 04:33N 38°07' E 013°29'0 0.0
2014-Jul-23 03:33N 38°07' E 013°29'0 0.0
2014-Jul-23 02:33N 38°07' E 013°29'0 0.0
2014-Jul-23 01:33N 38°07' E 013°29'0 0.0
2014-Jul-23 00:33N 38°07' E 013°29'0 0.0
2014-Jul-22 23:33N 38°07' E 013°29'0 0.0
2014-Jul-22 22:32N 38°07' E 013°29'0 0.0
2014-Jul-22 21:32N 38°07' E 013°29'0 0.0
2014-Jul-22 20:32N 38°07' E 013°29'0 0.0
2014-Jul-22 19:32N 38°07' E 013°29'0 0.0
2014-Jul-22 18:32N 38°07' E 013°29'0 0.0
2014-Jul-22 17:32N 38°07' E 013°29'0 0.0
2014-Jul-22 16:32N 38°07' E 013°29'0 0.0
2014-Jul-22 15:32N 38°07' E 013°29'0 0.0
2014-Jul-22 14:32N 38°07' E 013°29'2 1.6
2014-Jul-22 13:33N 38°07' E 013°27'0 0.4
2014-Jul-22 12:33N 38°07' E 013°26'0 0.0
2014-Jul-22 11:33N 38°07' E 013°26'0 0.0
2014-Jul-22 10:33N 38°07' E 013°26'0 0.0
2014-Jul-22 09:33N 38°07' E 013°26'0 0.0
2014-Jul-22 08:33N 38°07' E 013°26'0 0.0
2014-Jul-22 07:33N 38°07' E 013°26'0 0.0
2014-Jul-22 06:32N 38°07' E 013°26'0 0.0
2014-Jul-22 05:32N 38°07' E 013°26'0 0.0
2014-Jul-22 04:32N 38°07' E 013°26'0 0.0
2014-Jul-22 03:32N 38°07' E 013°26'0 0.0
2014-Jul-22 02:32N 38°07' E 013°26'0 0.0
2014-Jul-22 01:32N 38°07' E 013°26'0 0.0
2014-Jul-22 00:32N 38°07' E 013°26'0 0.0
2014-Jul-21 23:32N 38°07' E 013°26'0 0.0
2014-Jul-21 22:32N 38°07' E 013°26'0 0.0
2014-Jul-21 21:32N 38°07' E 013°26'0 0.0
2014-Jul-21 20:32N 38°07' E 013°26'0 0.1
2014-Jul-21 20:17N 38°07' E 013°26'0 0.0
2014-Jul-21 19:32N 38°07' E 013°26'0 0.0
2014-Jul-21 18:32N 38°07' E 013°26'0 0.0
2014-Jul-21 17:32N 38°07' E 013°26'0 0.0
2014-Jul-21 16:32N 38°07' E 013°26'0 0.0
2014-Jul-21 15:32N 38°07' E 013°26'0 0.1
2014-Jul-21 14:32N 38°07' E 013°26'0 0.0
2014-Jul-21 13:32N 38°07' E 013°26'0 0.0
2014-Jul-21 12:32N 38°07' E 013°26'0 0.0
2014-Jul-21 11:32N 38°07' E 013°26'0 0.1
2014-Jul-21 10:32N 38°07' E 013°26'0 0.0
2014-Jul-21 09:32N 38°07' E 013°26'0 0.1
2014-Jul-21 08:33N 38°07' E 013°26'1 0.9
2014-Jul-21 07:32N 38°06' E 013°26'0 0.0
2014-Jul-21 06:32N 38°06' E 013°26'0 0.2
2014-Jul-21 05:32N 38°06' E 013°26'1 0.7
2014-Jul-21 04:33N 38°07' E 013°26'0 0.1
2014-Jul-21 03:33N 38°07' E 013°26'0 0.1
2014-Jul-21 02:33N 38°07' E 013°26'0 0.0
2014-Jul-21 01:33N 38°07' E 013°26'0 0.0
2014-Jul-21 00:27N 38°07' E 013°26'0 0.0
2014-Jul-20 23:33N 38°07' E 013°26'0 0.1
2014-Jul-20 22:33N 38°07' E 013°26'7 7.3
2014-Jul-20 21:33N 38°10' E 013°35'1313.5
2014-Jul-20 20:33N 38°11' E 013°52'1313.5
2014-Jul-20 19:33N 38°13' E 014°09'1413.6
2014-Jul-20 18:34N 38°14' E 014°26'1413.9
2014-Jul-20 17:33N 38°15' E 014°44'1414.1
2014-Jul-20 16:33N 38°17' E 015°01'1413.8
2014-Jul-20 15:33N 38°19' E 015°19'1313.2
2014-Jul-20 14:32N 38°20' E 015°36'110 2.2
2014-Jul-18 11:32N 39°59' E 014°33'1413.6
2014-Jul-18 10:29N 40°11' E 014°23'1313.6
2014-Jul-18 09:33N 40°22' E 014°15'  

Dump ship's entire track history